sensor_id;sensor_type;location;lat;lon;timestamp;temperature;humidity
10864;DHT22;5485;37.558;126.950;2023-10-31T00:02:11;16.10;62.60
10864;DHT22;5485;37.558;126.950;2023-10-31T00:04:40;16.20;63.10
10864;DHT22;5485;37.558;126.950;2023-10-31T00:07:07;16.20;39.70
10864;DHT22;5485;37.558;126.950;2023-10-31T00:09:34;16.30;31.30
10864;DHT22;5485;37.558;126.950;2023-10-31T00:12:01;16.40;16.20
10864;DHT22;5485;37.558;126.950;2023-10-31T00:14:27;16.50;4.70
10864;DHT22;5485;37.558;126.950;2023-10-31T00:16:54;16.60;1.00
10864;DHT22;5485;37.558;126.950;2023-10-31T00:19:21;16.70;1.00
10864;DHT22;5485;37.558;126.950;2023-10-31T00:21:48;16.80;1.00
10864;DHT22;5485;37.558;126.950;2023-10-31T00:24:15;17.00;1.00
10864;DHT22;5485;37.558;126.950;2023-10-31T00:26:42;17.00;1.00
10864;DHT22;5485;37.558;126.950;2023-10-31T00:29:09;17.10;1.00
10864;DHT22;5485;37.558;126.950;2023-10-31T00:31:36;17.20;1.00
10864;DHT22;5485;37.558;126.950;2023-10-31T00:34:07;17.20;1.00
10864;DHT22;5485;37.558;126.950;2023-10-31T00:36:35;17.20;1.00
10864;DHT22;5485;37.558;126.950;2023-10-31T00:39:02;17.20;1.00
10864;DHT22;5485;37.558;126.950;2023-10-31T00:41:31;17.20;1.00
10864;DHT22;5485;37.558;126.950;2023-10-31T00:44:00;17.20;1.00
10864;DHT22;5485;37.558;126.950;2023-10-31T00:46:27;17.30;1.00
10864;DHT22;5485;37.558;126.950;2023-10-31T00:48:54;17.40;1.00
10864;DHT22;5485;37.558;126.950;2023-10-31T00:51:24;17.70;1.00
10864;DHT22;5485;37.558;126.950;2023-10-31T00:53:51;17.90;1.00
10864;DHT22;5485;37.558;126.950;2023-10-31T00:56:18;18.10;1.00
10864;DHT22;5485;37.558;126.950;2023-10-31T00:58:45;18.60;1.00
10864;DHT22;5485;37.558;126.950;2023-10-31T01:01:12;19.00;1.00
10864;DHT22;5485;37.558;126.950;2023-10-31T01:03:42;19.10;1.00
10864;DHT22;5485;37.558;126.950;2023-10-31T01:06:09;19.40;1.00
10864;DHT22;5485;37.558;126.950;2023-10-31T01:08:36;19.60;1.00
10864;DHT22;5485;37.558;126.950;2023-10-31T01:11:03;20.00;1.00
10864;DHT22;5485;37.558;126.950;2023-10-31T01:13:31;20.10;1.00
10864;DHT22;5485;37.558;126.950;2023-10-31T01:15:57;20.00;1.00
10864;DHT22;5485;37.558;126.950;2023-10-31T01:18:24;20.10;1.00
10864;DHT22;5485;37.558;126.950;2023-10-31T01:20:52;20.00;1.00
10864;DHT22;5485;37.558;126.950;2023-10-31T01:23:19;19.70;1.00
10864;DHT22;5485;37.558;126.950;2023-10-31T01:25:49;19.50;1.00
10864;DHT22;5485;37.558;126.950;2023-10-31T01:28:16;19.50;1.00
10864;DHT22;5485;37.558;126.950;2023-10-31T01:30:43;19.30;1.00
10864;DHT22;5485;37.558;126.950;2023-10-31T01:33:10;19.10;1.00
10864;DHT22;5485;37.558;126.950;2023-10-31T01:35:37;19.10;1.00
10864;DHT22;5485;37.558;126.950;2023-10-31T01:38:04;19.30;1.00
10864;DHT22;5485;37.558;126.950;2023-10-31T01:40:31;19.10;1.00
10864;DHT22;5485;37.558;126.950;2023-10-31T01:43:01;19.10;1.00
10864;DHT22;5485;37.558;126.950;2023-10-31T01:45:28;19.40;1.00
10864;DHT22;5485;37.558;126.950;2023-10-31T01:47:55;19.40;1.00
10864;DHT22;5485;37.558;126.950;2023-10-31T01:50:22;19.60;1.00
10864;DHT22;5485;37.558;126.950;2023-10-31T01:52:52;19.40;1.00
10864;DHT22;5485;37.558;126.950;2023-10-31T01:55:19;19.40;1.00
10864;DHT22;5485;37.558;126.950;2023-10-31T01:57:47;19.40;1.00
10864;DHT22;5485;37.558;126.950;2023-10-31T02:00:15;19.30;1.00
10864;DHT22;5485;37.558;126.950;2023-10-31T02:02:42;19.40;1.00
10864;DHT22;5485;37.558;126.950;2023-10-31T02:05:10;19.30;1.00
10864;DHT22;5485;37.558;126.950;2023-10-31T02:07:37;19.30;1.00
10864;DHT22;5485;37.558;126.950;2023-10-31T02:10:04;19.40;1.00
10864;DHT22;5485;37.558;126.950;2023-10-31T02:12:35;19.30;1.00
10864;DHT22;5485;37.558;126.950;2023-10-31T02:15:04;19.20;1.00
10864;DHT22;5485;37.558;126.950;2023-10-31T02:17:32;19.30;1.00
10864;DHT22;5485;37.558;126.950;2023-10-31T02:19:58;19.50;1.00
10864;DHT22;5485;37.558;126.950;2023-10-31T02:22:25;19.40;1.00
10864;DHT22;5485;37.558;126.950;2023-10-31T02:24:55;19.30;1.00
10864;DHT22;5485;37.558;126.950;2023-10-31T02:27:22;19.30;1.00
10864;DHT22;5485;37.558;126.950;2023-10-31T02:29:49;19.10;1.00
10864;DHT22;5485;37.558;126.950;2023-10-31T02:32:16;19.20;1.00
10864;DHT22;5485;37.558;126.950;2023-10-31T02:34:49;19.10;1.00
10864;DHT22;5485;37.558;126.950;2023-10-31T02:37:16;19.10;1.00
10864;DHT22;5485;37.558;126.950;2023-10-31T02:39:43;19.00;1.00
10864;DHT22;5485;37.558;126.950;2023-10-31T02:42:10;19.00;1.00
10864;DHT22;5485;37.558;126.950;2023-10-31T02:44:36;19.10;1.00
10864;DHT22;5485;37.558;126.950;2023-10-31T02:47:04;19.20;1.00
10864;DHT22;5485;37.558;126.950;2023-10-31T02:49:31;19.20;1.00
10864;DHT22;5485;37.558;126.950;2023-10-31T02:51:58;19.40;1.00
10864;DHT22;5485;37.558;126.950;2023-10-31T02:54:24;19.50;1.00
10864;DHT22;5485;37.558;126.950;2023-10-31T02:56:54;19.60;1.00
10864;DHT22;5485;37.558;126.950;2023-10-31T02:59:21;19.60;1.00
10864;DHT22;5485;37.558;126.950;2023-10-31T03:01:47;19.60;1.00
10864;DHT22;5485;37.558;126.950;2023-10-31T03:04:15;19.40;1.00
10864;DHT22;5485;37.558;126.950;2023-10-31T03:06:42;19.40;1.00
10864;DHT22;5485;37.558;126.950;2023-10-31T03:09:10;19.40;1.00
10864;DHT22;5485;37.558;126.950;2023-10-31T03:11:36;19.50;1.00
10864;DHT22;5485;37.558;126.950;2023-10-31T03:14:03;19.50;1.00
10864;DHT22;5485;37.558;126.950;2023-10-31T03:16:30;19.60;1.00
10864;DHT22;5485;37.558;126.950;2023-10-31T03:18:59;19.70;1.00
10864;DHT22;5485;37.558;126.950;2023-10-31T03:21:26;19.80;1.00
10864;DHT22;5485;37.558;126.950;2023-10-31T03:23:53;19.80;1.00
10864;DHT22;5485;37.558;126.950;2023-10-31T03:26:22;19.70;1.00
10864;DHT22;5485;37.558;126.950;2023-10-31T03:28:49;19.70;1.00
10864;DHT22;5485;37.558;126.950;2023-10-31T03:31:16;19.70;1.00
10864;DHT22;5485;37.558;126.950;2023-10-31T03:33:43;19.60;1.00
10864;DHT22;5485;37.558;126.950;2023-10-31T03:36:10;19.60;1.00
10864;DHT22;5485;37.558;126.950;2023-10-31T03:38:37;19.60;1.00
10864;DHT22;5485;37.558;126.950;2023-10-31T03:41:04;19.50;1.00
10864;DHT22;5485;37.558;126.950;2023-10-31T03:43:31;19.60;1.00
10864;DHT22;5485;37.558;126.950;2023-10-31T03:45:58;19.60;1.00
10864;DHT22;5485;37.558;126.950;2023-10-31T03:48:25;19.60;1.00
10864;DHT22;5485;37.558;126.950;2023-10-31T03:50:53;19.60;1.00
10864;DHT22;5485;37.558;126.950;2023-10-31T03:53:21;19.70;1.00
10864;DHT22;5485;37.558;126.950;2023-10-31T03:55:48;19.70;1.00
10864;DHT22;5485;37.558;126.950;2023-10-31T03:58:15;19.80;1.00
10864;DHT22;5485;37.558;126.950;2023-10-31T04:00:42;19.80;1.00
10864;DHT22;5485;37.558;126.950;2023-10-31T04:03:09;19.90;1.00
10864;DHT22;5485;37.558;126.950;2023-10-31T04:05:36;19.80;1.00
10864;DHT22;5485;37.558;126.950;2023-10-31T04:08:03;19.80;1.00
10864;DHT22;5485;37.558;126.950;2023-10-31T04:10:30;19.70;1.00
10864;DHT22;5485;37.558;126.950;2023-10-31T04:12:57;19.80;1.00
10864;DHT22;5485;37.558;126.950;2023-10-31T04:15:25;19.70;1.00
10864;DHT22;5485;37.558;126.950;2023-10-31T04:17:52;19.80;1.00
10864;DHT22;5485;37.558;126.950;2023-10-31T04:20:22;19.80;1.00
10864;DHT22;5485;37.558;126.950;2023-10-31T04:22:49;19.80;1.00
10864;DHT22;5485;37.558;126.950;2023-10-31T04:25:16;19.90;1.00
10864;DHT22;5485;37.558;126.950;2023-10-31T04:27:43;19.70;1.00
10864;DHT22;5485;37.558;126.950;2023-10-31T04:30:10;19.70;1.00
10864;DHT22;5485;37.558;126.950;2023-10-31T04:32:43;19.70;1.00
10864;DHT22;5485;37.558;126.950;2023-10-31T04:35:11;19.80;1.00
10864;DHT22;5485;37.558;126.950;2023-10-31T04:37:38;19.80;1.00
10864;DHT22;5485;37.558;126.950;2023-10-31T04:40:06;19.90;1.00
10864;DHT22;5485;37.558;126.950;2023-10-31T04:42:33;20.00;1.00
10864;DHT22;5485;37.558;126.950;2023-10-31T04:45:00;20.10;1.00
10864;DHT22;5485;37.558;126.950;2023-10-31T04:47:27;20.20;1.00
10864;DHT22;5485;37.558;126.950;2023-10-31T04:49:54;20.20;1.00
10864;DHT22;5485;37.558;126.950;2023-10-31T04:52:21;20.10;1.00
10864;DHT22;5485;37.558;126.950;2023-10-31T04:54:49;20.10;1.00
10864;DHT22;5485;37.558;126.950;2023-10-31T04:57:15;20.00;1.00
10864;DHT22;5485;37.558;126.950;2023-10-31T04:59:43;19.90;1.00
10864;DHT22;5485;37.558;126.950;2023-10-31T05:02:09;19.80;1.00
10864;DHT22;5485;37.558;126.950;2023-10-31T05:04:42;19.80;1.00
10864;DHT22;5485;37.558;126.950;2023-10-31T05:07:09;19.70;1.00
10864;DHT22;5485;37.558;126.950;2023-10-31T05:09:36;19.70;1.00
10864;DHT22;5485;37.558;126.950;2023-10-31T05:12:03;19.80;1.00
10864;DHT22;5485;37.558;126.950;2023-10-31T05:14:30;19.80;1.00
10864;DHT22;5485;37.558;126.950;2023-10-31T05:16:57;19.90;1.00
10864;DHT22;5485;37.558;126.950;2023-10-31T05:19:24;19.90;1.00
10864;DHT22;5485;37.558;126.950;2023-10-31T05:21:52;19.80;1.00
10864;DHT22;5485;37.558;126.950;2023-10-31T05:24:19;19.80;1.00
10864;DHT22;5485;37.558;126.950;2023-10-31T05:26:46;19.80;1.00
10864;DHT22;5485;37.558;126.950;2023-10-31T05:29:13;19.90;1.00
10864;DHT22;5485;37.558;126.950;2023-10-31T05:31:40;19.90;1.00
10864;DHT22;5485;37.558;126.950;2023-10-31T05:34:10;19.70;1.00
10864;DHT22;5485;37.558;126.950;2023-10-31T05:36:37;19.80;1.00
10864;DHT22;5485;37.558;126.950;2023-10-31T05:39:04;19.80;1.00
10864;DHT22;5485;37.558;126.950;2023-10-31T05:41:34;19.70;1.00
10864;DHT22;5485;37.558;126.950;2023-10-31T05:44:01;19.40;1.00
10864;DHT22;5485;37.558;126.950;2023-10-31T05:46:28;19.40;1.00
10864;DHT22;5485;37.558;126.950;2023-10-31T05:48:55;19.40;1.00
10864;DHT22;5485;37.558;126.950;2023-10-31T05:51:22;19.40;1.00
10864;DHT22;5485;37.558;126.950;2023-10-31T05:53:51;19.40;1.00
10864;DHT22;5485;37.558;126.950;2023-10-31T05:56:23;19.40;1.00
10864;DHT22;5485;37.558;126.950;2023-10-31T05:58:50;19.40;1.00
10864;DHT22;5485;37.558;126.950;2023-10-31T06:01:17;19.50;1.00
10864;DHT22;5485;37.558;126.950;2023-10-31T06:03:45;19.50;1.00
10864;DHT22;5485;37.558;126.950;2023-10-31T06:06:12;19.50;1.00
10864;DHT22;5485;37.558;126.950;2023-10-31T06:08:40;19.50;1.00
10864;DHT22;5485;37.558;126.950;2023-10-31T06:11:07;19.40;1.00
10864;DHT22;5485;37.558;126.950;2023-10-31T06:13:34;19.40;1.00
10864;DHT22;5485;37.558;126.950;2023-10-31T06:16:01;19.30;1.00
10864;DHT22;5485;37.558;126.950;2023-10-31T06:18:28;19.20;1.00
10864;DHT22;5485;37.558;126.950;2023-10-31T06:20:56;19.10;1.00
10864;DHT22;5485;37.558;126.950;2023-10-31T06:23:23;19.10;1.00
10864;DHT22;5485;37.558;126.950;2023-10-31T06:25:50;19.00;1.00
10864;DHT22;5485;37.558;126.950;2023-10-31T06:28:17;19.00;1.00
10864;DHT22;5485;37.558;126.950;2023-10-31T06:30:44;19.10;1.00
10864;DHT22;5485;37.558;126.950;2023-10-31T06:33:11;19.10;1.00
10864;DHT22;5485;37.558;126.950;2023-10-31T06:35:38;19.00;1.00
10864;DHT22;5485;37.558;126.950;2023-10-31T06:38:07;18.90;1.00
10864;DHT22;5485;37.558;126.950;2023-10-31T06:40:34;18.80;1.00
10864;DHT22;5485;37.558;126.950;2023-10-31T06:43:02;18.80;1.00
10864;DHT22;5485;37.558;126.950;2023-10-31T06:45:29;18.80;1.00
10864;DHT22;5485;37.558;126.950;2023-10-31T06:47:56;18.80;1.00
10864;DHT22;5485;37.558;126.950;2023-10-31T06:50:22;18.70;1.00
10864;DHT22;5485;37.558;126.950;2023-10-31T06:52:50;18.80;1.00
10864;DHT22;5485;37.558;126.950;2023-10-31T06:55:17;18.80;1.00
10864;DHT22;5485;37.558;126.950;2023-10-31T06:57:43;18.70;1.00
10864;DHT22;5485;37.558;126.950;2023-10-31T07:00:11;18.60;1.00
10864;DHT22;5485;37.558;126.950;2023-10-31T07:02:39;18.50;1.00
10864;DHT22;5485;37.558;126.950;2023-10-31T07:05:06;18.50;1.00
10864;DHT22;5485;37.558;126.950;2023-10-31T07:07:33;18.40;1.00
10864;DHT22;5485;37.558;126.950;2023-10-31T07:10:00;18.40;1.00
10864;DHT22;5485;37.558;126.950;2023-10-31T07:12:27;18.40;1.00
10864;DHT22;5485;37.558;126.950;2023-10-31T07:14:54;18.40;1.00
10864;DHT22;5485;37.558;126.950;2023-10-31T07:17:21;18.40;1.00
10864;DHT22;5485;37.558;126.950;2023-10-31T07:19:48;18.40;1.00
10864;DHT22;5485;37.558;126.950;2023-10-31T07:22:16;18.40;1.00
10864;DHT22;5485;37.558;126.950;2023-10-31T07:24:46;18.40;1.00
10864;DHT22;5485;37.558;126.950;2023-10-31T07:27:13;18.40;1.00
10864;DHT22;5485;37.558;126.950;2023-10-31T07:29:42;18.40;1.00
10864;DHT22;5485;37.558;126.950;2023-10-31T07:32:09;18.40;1.00
10864;DHT22;5485;37.558;126.950;2023-10-31T07:34:41;18.30;1.00
10864;DHT22;5485;37.558;126.950;2023-10-31T07:37:08;18.30;1.00
10864;DHT22;5485;37.558;126.950;2023-10-31T07:39:38;18.20;1.00
10864;DHT22;5485;37.558;126.950;2023-10-31T07:42:07;18.20;1.00
10864;DHT22;5485;37.558;126.950;2023-10-31T07:44:34;18.10;1.00
10864;DHT22;5485;37.558;126.950;2023-10-31T07:47:01;18.10;1.00
10864;DHT22;5485;37.558;126.950;2023-10-31T07:49:28;18.00;1.00
10864;DHT22;5485;37.558;126.950;2023-10-31T07:51:56;18.00;1.00
10864;DHT22;5485;37.558;126.950;2023-10-31T07:54:24;18.00;1.00
10864;DHT22;5485;37.558;126.950;2023-10-31T07:56:52;17.90;1.00
10864;DHT22;5485;37.558;126.950;2023-10-31T07:59:21;17.90;1.00
10864;DHT22;5485;37.558;126.950;2023-10-31T08:01:48;17.80;1.00
10864;DHT22;5485;37.558;126.950;2023-10-31T08:04:16;17.80;1.00
10864;DHT22;5485;37.558;126.950;2023-10-31T08:06:43;17.80;1.00
10864;DHT22;5485;37.558;126.950;2023-10-31T08:09:10;17.80;1.00
10864;DHT22;5485;37.558;126.950;2023-10-31T08:11:38;17.80;1.00
10864;DHT22;5485;37.558;126.950;2023-10-31T08:14:05;17.80;1.00
10864;DHT22;5485;37.558;126.950;2023-10-31T08:16:32;17.80;1.00
10864;DHT22;5485;37.558;126.950;2023-10-31T08:18:58;17.80;1.00
10864;DHT22;5485;37.558;126.950;2023-10-31T08:21:25;17.80;1.00
10864;DHT22;5485;37.558;126.950;2023-10-31T08:24:01;17.70;1.00
10864;DHT22;5485;37.558;126.950;2023-10-31T08:26:29;17.70;1.00
10864;DHT22;5485;37.558;126.950;2023-10-31T08:28:56;17.70;1.00
10864;DHT22;5485;37.558;126.950;2023-10-31T08:31:23;17.60;1.00
10864;DHT22;5485;37.558;126.950;2023-10-31T08:33:51;17.60;1.00
10864;DHT22;5485;37.558;126.950;2023-10-31T08:36:18;17.50;1.00
10864;DHT22;5485;37.558;126.950;2023-10-31T08:38:45;17.40;1.00
10864;DHT22;5485;37.558;126.950;2023-10-31T08:41:13;17.40;1.00
10864;DHT22;5485;37.558;126.950;2023-10-31T08:43:48;17.30;1.00
10864;DHT22;5485;37.558;126.950;2023-10-31T08:46:16;17.30;1.00
10864;DHT22;5485;37.558;126.950;2023-10-31T08:48:43;17.30;1.00
10864;DHT22;5485;37.558;126.950;2023-10-31T08:51:10;17.20;1.00
10864;DHT22;5485;37.558;126.950;2023-10-31T08:53:37;17.20;1.00
10864;DHT22;5485;37.558;126.950;2023-10-31T08:56:06;17.20;1.00
10864;DHT22;5485;37.558;126.950;2023-10-31T08:58:33;17.20;1.00
10864;DHT22;5485;37.558;126.950;2023-10-31T09:01:00;17.10;1.00
10864;DHT22;5485;37.558;126.950;2023-10-31T09:03:27;17.20;1.00
10864;DHT22;5485;37.558;126.950;2023-10-31T09:05:55;17.20;1.00
10864;DHT22;5485;37.558;126.950;2023-10-31T09:08:23;17.30;1.00
10864;DHT22;5485;37.558;126.950;2023-10-31T09:10:49;17.30;1.00
10864;DHT22;5485;37.558;126.950;2023-10-31T09:13:16;17.30;1.00
10864;DHT22;5485;37.558;126.950;2023-10-31T09:15:43;17.30;1.00
10864;DHT22;5485;37.558;126.950;2023-10-31T09:18:12;17.30;1.00
10864;DHT22;5485;37.558;126.950;2023-10-31T09:20:41;17.30;1.00
10864;DHT22;5485;37.558;126.950;2023-10-31T09:23:08;17.30;1.00
10864;DHT22;5485;37.558;126.950;2023-10-31T09:25:35;17.30;1.00
10864;DHT22;5485;37.558;126.950;2023-10-31T09:28:02;17.30;1.00
10864;DHT22;5485;37.558;126.950;2023-10-31T09:30:29;17.20;1.00
10864;DHT22;5485;37.558;126.950;2023-10-31T09:32:56;17.10;1.00
10864;DHT22;5485;37.558;126.950;2023-10-31T09:35:23;17.00;1.00
10864;DHT22;5485;37.558;126.950;2023-10-31T09:37:51;16.90;1.00
10864;DHT22;5485;37.558;126.950;2023-10-31T09:40:24;16.90;1.00
10864;DHT22;5485;37.558;126.950;2023-10-31T09:42:51;16.80;1.00
10864;DHT22;5485;37.558;126.950;2023-10-31T09:45:18;16.80;1.00
10864;DHT22;5485;37.558;126.950;2023-10-31T09:47:45;16.80;1.00
10864;DHT22;5485;37.558;126.950;2023-10-31T09:50:13;16.80;1.00
10864;DHT22;5485;37.558;126.950;2023-10-31T09:52:40;16.90;1.00
10864;DHT22;5485;37.558;126.950;2023-10-31T09:55:08;16.90;1.00
10864;DHT22;5485;37.558;126.950;2023-10-31T09:57:36;16.90;1.00
10864;DHT22;5485;37.558;126.950;2023-10-31T10:00:03;17.00;1.00
10864;DHT22;5485;37.558;126.950;2023-10-31T10:02:30;16.90;1.00
10864;DHT22;5485;37.558;126.950;2023-10-31T10:04:57;16.90;1.00
10864;DHT22;5485;37.558;126.950;2023-10-31T10:07:24;17.00;1.00
10864;DHT22;5485;37.558;126.950;2023-10-31T10:09:52;16.90;1.00
10864;DHT22;5485;37.558;126.950;2023-10-31T10:12:19;16.90;1.00
10864;DHT22;5485;37.558;126.950;2023-10-31T10:14:48;16.80;1.00
10864;DHT22;5485;37.558;126.950;2023-10-31T10:17:23;16.80;1.00
10864;DHT22;5485;37.558;126.950;2023-10-31T10:20:25;16.80;1.00
10864;DHT22;5485;37.558;126.950;2023-10-31T10:22:52;16.90;1.00
10864;DHT22;5485;37.558;126.950;2023-10-31T10:25:19;16.90;1.00
10864;DHT22;5485;37.558;126.950;2023-10-31T10:27:47;16.90;1.00
10864;DHT22;5485;37.558;126.950;2023-10-31T10:30:14;17.00;1.00
10864;DHT22;5485;37.558;126.950;2023-10-31T10:32:42;17.00;1.00
10864;DHT22;5485;37.558;126.950;2023-10-31T10:35:10;17.10;1.00
10864;DHT22;5485;37.558;126.950;2023-10-31T10:37:38;17.10;1.00
10864;DHT22;5485;37.558;126.950;2023-10-31T10:40:07;17.10;1.00
10864;DHT22;5485;37.558;126.950;2023-10-31T10:42:56;17.20;1.00
10864;DHT22;5485;37.558;126.950;2023-10-31T10:45:26;17.20;1.00
10864;DHT22;5485;37.558;126.950;2023-10-31T10:47:55;17.20;1.00
10864;DHT22;5485;37.558;126.950;2023-10-31T10:50:24;17.20;1.00
10864;DHT22;5485;37.558;126.950;2023-10-31T10:55:55;17.30;1.00
10864;DHT22;5485;37.558;126.950;2023-10-31T10:58:59;17.30;1.00
10864;DHT22;5485;37.558;126.950;2023-10-31T11:01:23;17.20;1.00
10864;DHT22;5485;37.558;126.950;2023-10-31T11:03:51;17.20;1.00
10864;DHT22;5485;37.558;126.950;2023-10-31T11:06:19;17.10;1.00
10864;DHT22;5485;37.558;126.950;2023-10-31T11:08:47;17.10;1.00
10864;DHT22;5485;37.558;126.950;2023-10-31T11:11:14;17.20;1.00
10864;DHT22;5485;37.558;126.950;2023-10-31T11:13:44;17.20;1.00
10864;DHT22;5485;37.558;126.950;2023-10-31T11:16:24;17.30;1.00
10864;DHT22;5485;37.558;126.950;2023-10-31T11:18:53;17.30;1.00
10864;DHT22;5485;37.558;126.950;2023-10-31T11:21:23;17.30;1.00
10864;DHT22;5485;37.558;126.950;2023-10-31T11:24:00;17.30;1.00
10864;DHT22;5485;37.558;126.950;2023-10-31T11:26:33;17.30;1.00
10864;DHT22;5485;37.558;126.950;2023-10-31T11:29:06;17.30;1.00
10864;DHT22;5485;37.558;126.950;2023-10-31T11:31:33;17.30;1.00
10864;DHT22;5485;37.558;126.950;2023-10-31T11:34:04;17.30;1.00
10864;DHT22;5485;37.558;126.950;2023-10-31T11:36:32;17.30;1.00
10864;DHT22;5485;37.558;126.950;2023-10-31T11:41:50;17.30;1.00
10864;DHT22;5485;37.558;126.950;2023-10-31T11:44:17;17.30;1.00
10864;DHT22;5485;37.558;126.950;2023-10-31T11:46:45;17.30;1.00
10864;DHT22;5485;37.558;126.950;2023-10-31T11:49:16;17.30;1.00
10864;DHT22;5485;37.558;126.950;2023-10-31T11:51:45;17.30;1.00
10864;DHT22;5485;37.558;126.950;2023-10-31T11:54:14;17.20;1.00
10864;DHT22;5485;37.558;126.950;2023-10-31T11:56:42;17.20;1.00
10864;DHT22;5485;37.558;126.950;2023-10-31T11:59:10;17.20;1.00
10864;DHT22;5485;37.558;126.950;2023-10-31T12:01:46;17.20;1.00
10864;DHT22;5485;37.558;126.950;2023-10-31T12:04:22;17.20;1.00
10864;DHT22;5485;37.558;126.950;2023-10-31T12:07:00;17.30;1.00
10864;DHT22;5485;37.558;126.950;2023-10-31T12:09:27;17.30;1.00
10864;DHT22;5485;37.558;126.950;2023-10-31T12:11:54;17.20;1.00
10864;DHT22;5485;37.558;126.950;2023-10-31T12:14:21;17.30;1.00
10864;DHT22;5485;37.558;126.950;2023-10-31T12:16:48;17.20;1.00
10864;DHT22;5485;37.558;126.950;2023-10-31T12:19:21;17.20;1.00
10864;DHT22;5485;37.558;126.950;2023-10-31T12:21:48;17.20;1.00
10864;DHT22;5485;37.558;126.950;2023-10-31T12:24:17;17.20;1.00
10864;DHT22;5485;37.558;126.950;2023-10-31T12:26:45;17.20;1.00
10864;DHT22;5485;37.558;126.950;2023-10-31T12:32:01;17.10;1.00
10864;DHT22;5485;37.558;126.950;2023-10-31T12:34:28;17.10;1.00
10864;DHT22;5485;37.558;126.950;2023-10-31T12:36:55;17.10;3.60
10864;DHT22;5485;37.558;126.950;2023-10-31T12:39:26;17.10;8.70
10864;DHT22;5485;37.558;126.950;2023-10-31T12:41:54;17.10;12.50
10864;DHT22;5485;37.558;126.950;2023-10-31T12:44:25;17.10;21.00
10864;DHT22;5485;37.558;126.950;2023-10-31T12:46:53;17.10;22.10
10864;DHT22;5485;37.558;126.950;2023-10-31T12:49:23;17.00;26.80
10864;DHT22;5485;37.558;126.950;2023-10-31T12:52:03;17.00;30.50
10864;DHT22;5485;37.558;126.950;2023-10-31T12:54:37;17.10;36.80
10864;DHT22;5485;37.558;126.950;2023-10-31T12:57:09;17.10;39.70
10864;DHT22;5485;37.558;126.950;2023-10-31T12:59:39;17.10;40.00
10864;DHT22;5485;37.558;126.950;2023-10-31T13:02:06;17.10;44.10
10864;DHT22;5485;37.558;126.950;2023-10-31T13:04:34;17.10;40.40
10864;DHT22;5485;37.558;126.950;2023-10-31T13:07:05;17.10;37.60
10864;DHT22;5485;37.558;126.950;2023-10-31T13:09:37;17.10;39.20
10864;DHT22;5485;37.558;126.950;2023-10-31T13:12:09;17.10;39.80
10864;DHT22;5485;37.558;126.950;2023-10-31T13:14:40;17.10;42.60
10864;DHT22;5485;37.558;126.950;2023-10-31T13:17:07;17.10;46.70
10864;DHT22;5485;37.558;126.950;2023-10-31T13:19:34;17.20;42.60
10864;DHT22;5485;37.558;126.950;2023-10-31T13:22:01;17.20;42.30
10864;DHT22;5485;37.558;126.950;2023-10-31T13:24:28;17.20;44.30
10864;DHT22;5485;37.558;126.950;2023-10-31T13:26:55;17.20;47.50
10864;DHT22;5485;37.558;126.950;2023-10-31T13:29:22;17.20;49.00
10864;DHT22;5485;37.558;126.950;2023-10-31T13:31:52;17.20;56.00
10864;DHT22;5485;37.558;126.950;2023-10-31T13:34:19;17.20;55.00
10864;DHT22;5485;37.558;126.950;2023-10-31T13:36:46;17.20;63.90
10864;DHT22;5485;37.558;126.950;2023-10-31T13:39:14;17.20;56.80
10864;DHT22;5485;37.558;126.950;2023-10-31T13:41:42;17.20;68.10
10864;DHT22;5485;37.558;126.950;2023-10-31T13:44:09;17.20;63.60
10864;DHT22;5485;37.558;126.950;2023-10-31T13:46:36;17.20;63.60
10864;DHT22;5485;37.558;126.950;2023-10-31T13:49:03;17.20;68.10
10864;DHT22;5485;37.558;126.950;2023-10-31T13:51:30;17.20;63.60
10864;DHT22;5485;37.558;126.950;2023-10-31T13:53:57;17.20;63.60
10864;DHT22;5485;37.558;126.950;2023-10-31T13:56:24;17.20;64.00
10864;DHT22;5485;37.558;126.950;2023-10-31T13:58:50;17.20;63.80
10864;DHT22;5485;37.558;126.950;2023-10-31T14:01:17;17.20;63.60
10864;DHT22;5485;37.558;126.950;2023-10-31T14:03:51;17.20;63.80
10864;DHT22;5485;37.558;126.950;2023-10-31T14:06:17;17.20;63.60
10864;DHT22;5485;37.558;126.950;2023-10-31T14:08:45;17.10;63.50
10864;DHT22;5485;37.558;126.950;2023-10-31T14:11:12;17.20;63.60
10864;DHT22;5485;37.558;126.950;2023-10-31T14:13:39;17.10;63.70
10864;DHT22;5485;37.558;126.950;2023-10-31T14:16:10;17.20;63.60
10864;DHT22;5485;37.558;126.950;2023-10-31T14:18:38;17.10;63.50
10864;DHT22;5485;37.558;126.950;2023-10-31T14:21:05;17.10;64.00
10864;DHT22;5485;37.558;126.950;2023-10-31T14:23:32;17.10;63.70
10864;DHT22;5485;37.558;126.950;2023-10-31T14:25:59;17.20;63.90
10864;DHT22;5485;37.558;126.950;2023-10-31T14:28:29;17.20;63.60
10864;DHT22;5485;37.558;126.950;2023-10-31T14:30:56;17.20;81.80
10864;DHT22;5485;37.558;126.950;2023-10-31T14:33:23;17.20;74.40
10864;DHT22;5485;37.558;126.950;2023-10-31T14:35:50;17.20;79.80
10864;DHT22;5485;37.558;126.950;2023-10-31T14:38:17;17.20;90.30
10864;DHT22;5485;37.558;126.950;2023-10-31T14:40:47;17.20;90.00
10864;DHT22;5485;37.558;126.950;2023-10-31T14:43:17;17.30;91.00
10864;DHT22;5485;37.558;126.950;2023-10-31T14:45:44;17.30;91.70
10864;DHT22;5485;37.558;126.950;2023-10-31T14:48:11;17.30;92.00
10864;DHT22;5485;37.558;126.950;2023-10-31T14:50:39;17.30;94.30
10864;DHT22;5485;37.558;126.950;2023-10-31T14:53:06;17.30;96.70
10864;DHT22;5485;37.558;126.950;2023-10-31T14:55:35;17.20;98.10
10864;DHT22;5485;37.558;126.950;2023-10-31T14:58:05;17.30;99.90
10864;DHT22;5485;37.558;126.950;2023-10-31T15:00:38;17.30;99.90
10864;DHT22;5485;37.558;126.950;2023-10-31T15:03:05;17.20;99.90
10864;DHT22;5485;37.558;126.950;2023-10-31T15:05:32;17.30;99.90
10864;DHT22;5485;37.558;126.950;2023-10-31T15:08:00;17.20;99.90
10864;DHT22;5485;37.558;126.950;2023-10-31T15:10:27;17.20;99.90
10864;DHT22;5485;37.558;126.950;2023-10-31T15:12:55;17.30;99.90
10864;DHT22;5485;37.558;126.950;2023-10-31T15:15:23;17.20;99.90
10864;DHT22;5485;37.558;126.950;2023-10-31T15:17:51;17.20;99.90
10864;DHT22;5485;37.558;126.950;2023-10-31T15:20:23;17.20;99.90
10864;DHT22;5485;37.558;126.950;2023-10-31T15:22:50;17.20;99.90
10864;DHT22;5485;37.558;126.950;2023-10-31T15:25:17;17.20;99.90
10864;DHT22;5485;37.558;126.950;2023-10-31T15:27:44;17.20;99.90
10864;DHT22;5485;37.558;126.950;2023-10-31T15:30:13;17.20;99.90
10864;DHT22;5485;37.558;126.950;2023-10-31T15:32:39;17.20;99.90
10864;DHT22;5485;37.558;126.950;2023-10-31T15:35:08;17.20;99.90
10864;DHT22;5485;37.558;126.950;2023-10-31T15:37:37;17.20;99.90
10864;DHT22;5485;37.558;126.950;2023-10-31T15:40:04;17.20;99.90
10864;DHT22;5485;37.558;126.950;2023-10-31T15:42:31;17.30;99.90